createdAt,value
2018-11-14T00:00:20.577Z,3.60
2018-11-14T00:02:52.108Z,3.53
2018-11-14T00:05:20.805Z,2.80
2018-11-14T00:07:49.532Z,4.90
2018-11-14T00:10:18.929Z,3.87
2018-11-14T00:12:47.262Z,3.43
2018-11-14T00:15:17.272Z,4.13
2018-11-14T00:17:46.700Z,4.60
2018-11-14T00:20:15.357Z,3.30
2018-11-14T00:22:45.196Z,3.97
2018-11-14T00:25:13.712Z,3.20
2018-11-14T00:27:42.217Z,4.40
2018-11-14T00:30:13.188Z,5.13
2018-11-14T00:32:41.932Z,4.97
2018-11-14T00:35:11.188Z,4.33
2018-11-14T00:37:40.049Z,6.10
2018-11-14T00:40:10.089Z,5.90
2018-11-14T00:42:38.777Z,5.30
2018-11-14T00:45:09.564Z,6.57
2018-11-14T00:47:38.123Z,5.90
2018-11-14T00:50:07.536Z,5.30
2018-11-14T00:52:36.380Z,5.07
2018-11-14T00:55:05.547Z,5.70
2018-11-14T00:57:34.616Z,5.23
2018-11-14T01:00:03.269Z,3.57
2018-11-14T01:02:31.781Z,4.77
2018-11-14T01:05:00.316Z,3.70
2018-11-14T01:07:28.812Z,3.90
2018-11-14T01:09:57.352Z,4.00
2018-11-14T01:12:25.894Z,4.70
2018-11-14T01:14:54.660Z,4.07
2018-11-14T01:17:23.197Z,4.23
2018-11-14T01:19:51.771Z,4.93
2018-11-14T01:22:20.732Z,5.03
2018-11-14T01:24:49.336Z,4.30
2018-11-14T01:27:18.095Z,4.03
2018-11-14T01:29:46.571Z,4.20
2018-11-14T01:32:15.336Z,2.90
2018-11-14T01:34:44.045Z,3.87
2018-11-14T01:37:12.576Z,3.63
2018-11-14T01:39:41.312Z,2.97
2018-11-14T01:42:09.804Z,3.13
2018-11-14T01:44:38.340Z,3.10
2018-11-14T01:47:06.924Z,3.70
2018-11-14T01:49:35.484Z,3.13
2018-11-14T01:52:04.327Z,3.67
2018-11-14T01:54:32.887Z,3.20
2018-11-14T01:57:01.432Z,3.50
2018-11-14T01:59:30.033Z,3.83
2018-11-14T02:01:58.600Z,2.40
2018-11-14T02:04:27.228Z,3.37
2018-11-14T02:06:55.763Z,3.50
2018-11-14T02:09:24.284Z,3.00
2018-11-14T02:11:52.862Z,3.90
2018-11-14T02:14:21.448Z,4.53
2018-11-14T02:16:50.035Z,4.10
2018-11-14T02:19:18.516Z,3.70
2018-11-14T02:21:47.063Z,3.20
2018-11-14T02:24:15.572Z,4.33
2018-11-14T02:26:44.131Z,3.30
2018-11-14T02:29:12.745Z,2.90
2018-11-14T02:31:41.237Z,3.40
2018-11-14T02:34:09.827Z,3.17
2018-11-14T02:36:38.419Z,3.80
2018-11-14T02:39:08.425Z,4.60
2018-11-14T02:41:36.924Z,3.67
2018-11-14T02:44:05.667Z,3.83
2018-11-14T02:46:34.241Z,3.50
2018-11-14T02:49:02.732Z,4.93
2018-11-14T02:51:31.334Z,5.30
2018-11-14T02:53:59.906Z,4.03
2018-11-14T02:56:28.496Z,5.80
2018-11-14T02:58:57.061Z,5.40
2018-11-14T03:01:25.553Z,4.50
2018-11-14T03:03:54.085Z,5.33
2018-11-14T03:06:22.569Z,6.33
2018-11-14T03:08:51.183Z,6.33
2018-11-14T03:11:19.760Z,7.27
2018-11-14T03:13:48.343Z,7.73
2018-11-14T03:16:16.965Z,8.80
2018-11-14T03:18:45.446Z,8.23
2018-11-14T03:21:14.013Z,9.30
2018-11-14T03:23:42.572Z,7.63
2018-11-14T03:26:11.173Z,6.80
2018-11-14T03:28:39.763Z,6.60
2018-11-14T03:31:08.271Z,7.60
2018-11-14T03:33:36.824Z,6.90
2018-11-14T03:36:10.913Z,8.03
2018-11-14T03:38:39.568Z,7.60
2018-11-14T03:41:08.188Z,7.20
2018-11-14T03:43:36.766Z,7.77
2018-11-14T03:46:05.719Z,6.60
2018-11-14T03:48:34.203Z,8.27
2018-11-14T03:51:02.729Z,7.37
2018-11-14T03:53:31.260Z,10.10
2018-11-14T03:55:59.788Z,7.00
2018-11-14T03:58:28.411Z,9.03
2018-11-14T04:00:56.884Z,11.20
2018-11-14T04:03:25.416Z,10.30
2018-11-14T04:05:54.021Z,9.83
2018-11-14T04:08:22.628Z,10.53
2018-11-14T04:10:51.216Z,14.93
2018-11-14T04:13:19.768Z,12.50
2018-11-14T04:15:48.366Z,11.03
2018-11-14T04:18:16.960Z,12.83
2018-11-14T04:20:45.528Z,11.40
2018-11-14T04:23:14.044Z,11.83
2018-11-14T04:25:42.583Z,13.40
2018-11-14T04:28:11.432Z,10.20
2018-11-14T04:30:39.958Z,11.83
2018-11-14T04:33:08.547Z,13.10
2018-11-14T04:35:37.162Z,12.83
2018-11-14T04:38:05.837Z,11.83
2018-11-14T04:40:34.368Z,11.23
2018-11-14T04:43:02.865Z,8.03
2018-11-14T04:45:31.346Z,8.17
2018-11-14T04:48:00.057Z,10.33
2018-11-14T04:50:28.548Z,9.17
2018-11-14T04:52:57.287Z,10.90
2018-11-14T04:55:26.637Z,7.33
2018-11-14T04:57:55.452Z,8.40
2018-11-14T05:00:25.131Z,10.30
2018-11-14T05:02:53.737Z,6.40
2018-11-14T05:05:23.661Z,7.57
2018-11-14T05:07:52.180Z,5.93
2018-11-14T05:10:22.370Z,8.13
2018-11-14T05:12:52.059Z,8.30
2018-11-14T05:15:21.906Z,7.30
2018-11-14T05:17:51.653Z,7.20
2018-11-14T05:20:20.996Z,7.27
2018-11-14T05:22:49.770Z,7.40
2018-11-14T05:25:18.643Z,7.53
2018-11-14T05:27:47.240Z,8.60
2018-11-14T05:30:19.400Z,8.27
2018-11-14T05:32:48.843Z,8.40
2018-11-14T05:35:17.850Z,6.90
2018-11-14T05:37:46.824Z,6.40
2018-11-14T05:40:19.604Z,7.60
2018-11-14T05:42:48.792Z,9.10
2018-11-14T05:45:19.876Z,8.97
2018-11-14T05:47:48.389Z,6.23
2018-11-14T05:50:18.143Z,8.77
2018-11-14T05:52:46.632Z,6.37
2018-11-14T05:55:15.803Z,8.17
2018-11-14T05:57:44.383Z,10.90
2018-11-14T06:00:17.424Z,9.97
2018-11-14T06:02:46.736Z,10.77
2018-11-14T06:05:15.288Z,5.13
2018-11-14T06:07:43.815Z,10.70
2018-11-14T06:10:13.221Z,12.27
2018-11-14T06:12:42.544Z,6.90
2018-11-14T06:15:14.023Z,10.10
2018-11-14T06:17:43.592Z,10.27
2018-11-14T06:20:14.052Z,6.80
2018-11-14T06:22:43.619Z,6.83
2018-11-14T06:25:17.414Z,8.33
2018-11-14T06:27:46.040Z,7.30
2018-11-14T06:30:14.516Z,9.33
2018-11-14T06:32:43.052Z,7.90
2018-11-14T06:35:11.628Z,9.20
2018-11-14T06:37:40.131Z,8.80
2018-11-14T06:40:10.485Z,9.47
2018-11-14T06:42:39.565Z,8.63
2018-11-14T06:45:10.615Z,8.37
2018-11-14T06:47:39.384Z,9.97
2018-11-14T06:50:09.324Z,10.03
2018-11-14T06:52:38.225Z,7.60
2018-11-14T06:55:07.985Z,6.70
2018-11-14T06:57:36.809Z,8.90
2018-11-14T07:00:07.076Z,10.23
2018-11-14T07:02:38.338Z,9.33
2018-11-14T07:05:04.614Z,8.53
2018-11-14T07:07:33.008Z,10.10
2018-11-14T07:10:01.512Z,6.33
2018-11-14T07:12:30.124Z,8.27
2018-11-14T07:14:58.698Z,7.33
2018-11-14T07:17:27.164Z,7.47
2018-11-14T07:19:55.767Z,9.57
2018-11-14T07:22:24.328Z,8.50
2018-11-14T07:24:52.825Z,7.00
2018-11-14T07:27:21.407Z,8.50
2018-11-14T07:29:50.004Z,8.10
2018-11-14T07:32:18.592Z,6.67
2018-11-14T07:34:47.325Z,11.93
2018-11-14T07:37:15.831Z,9.20
2018-11-14T07:39:44.416Z,11.27
2018-11-14T07:42:13.036Z,8.03
2018-11-14T07:44:41.608Z,8.60
2018-11-14T07:47:10.172Z,6.70
2018-11-14T07:49:38.906Z,7.00
2018-11-14T07:52:07.452Z,7.50
2018-11-14T07:54:36.036Z,5.00
2018-11-14T07:57:04.524Z,5.97
2018-11-14T07:59:33.068Z,6.80
2018-11-14T08:02:02.190Z,6.03
2018-11-14T08:04:30.662Z,5.57
2018-11-14T08:06:59.248Z,5.30
2018-11-14T08:09:27.829Z,4.23
2018-11-14T08:11:56.575Z,4.47
2018-11-14T08:14:25.100Z,5.63
2018-11-14T08:16:53.660Z,5.47
2018-11-14T08:19:22.200Z,5.23
2018-11-14T08:21:50.756Z,3.60
2018-11-14T08:24:19.300Z,5.10
2018-11-14T08:26:47.903Z,4.30
2018-11-14T08:29:16.368Z,5.10
2018-11-14T08:31:44.876Z,3.80
2018-11-14T08:34:13.465Z,4.90
2018-11-14T08:36:42.156Z,4.87
2018-11-14T08:39:10.740Z,5.03
2018-11-14T08:41:39.316Z,5.30
2018-11-14T08:44:08.006Z,4.50
2018-11-14T08:46:36.563Z,4.57
2018-11-14T08:49:05.196Z,3.57
2018-11-14T08:51:33.672Z,4.70
2018-11-14T08:54:02.240Z,4.83
2018-11-14T08:56:30.815Z,4.33
2018-11-14T08:58:59.400Z,5.20
2018-11-14T09:01:28.148Z,6.00
2018-11-14T09:03:56.669Z,7.10
2018-11-14T09:06:25.184Z,5.57
2018-11-14T09:08:53.736Z,5.33
2018-11-14T09:11:22.575Z,5.90
2018-11-14T09:13:51.050Z,5.93
2018-11-14T09:16:19.588Z,5.37
2018-11-14T09:18:48.260Z,6.90
2018-11-14T09:21:16.764Z,6.70
2018-11-14T09:23:45.250Z,5.90
2018-11-14T09:26:13.808Z,7.57
2018-11-14T09:28:42.374Z,7.73
2018-11-14T09:31:10.904Z,5.73
2018-11-14T09:33:39.372Z,7.43
2018-11-14T09:36:07.988Z,9.13
2018-11-14T09:38:36.532Z,7.40
2018-11-14T09:41:05.485Z,7.00
2018-11-14T09:43:33.979Z,7.53
2018-11-14T09:46:02.504Z,8.90
2018-11-14T09:48:31.101Z,6.60
2018-11-14T09:50:59.674Z,6.80
2018-11-14T09:53:28.226Z,6.60
2018-11-14T09:55:56.824Z,7.70
2018-11-14T09:58:25.603Z,6.43
2018-11-14T10:00:54.188Z,6.93
2018-11-14T10:03:22.799Z,8.50
2018-11-14T10:05:51.351Z,9.23
2018-11-14T10:08:19.812Z,10.20
2018-11-14T10:10:48.401Z,10.13
2018-11-14T10:13:16.887Z,9.33
2018-11-14T10:15:45.497Z,10.50
2018-11-14T10:18:13.900Z,9.07
2018-11-14T10:20:42.460Z,8.73
2018-11-14T10:23:11.156Z,9.40
2018-11-14T10:25:40.002Z,8.33
2018-11-14T10:28:08.592Z,9.23
2018-11-14T10:30:37.109Z,8.77
2018-11-14T10:33:05.820Z,8.40
2018-11-14T10:35:34.723Z,8.50
2018-11-14T10:38:03.348Z,9.80
2018-11-14T10:40:31.960Z,10.60
2018-11-14T10:43:00.538Z,10.50
2018-11-14T10:45:29.376Z,11.73
2018-11-14T10:47:57.839Z,7.70
2018-11-14T10:50:27.532Z,11.00
2018-11-14T10:52:56.102Z,10.77
2018-11-14T10:55:24.918Z,9.90
2018-11-14T10:57:54.178Z,13.23
2018-11-14T11:00:31.965Z,10.50
2018-11-14T11:03:06.740Z,11.07
2018-11-14T11:05:44.241Z,9.40
2018-11-14T11:08:19.180Z,8.83
2018-11-14T11:10:53.654Z,10.90
2018-11-14T11:13:27.519Z,11.60
2018-11-14T11:16:01.631Z,12.63
2018-11-14T11:18:34.451Z,11.20
2018-11-14T11:21:03.179Z,11.53
2018-11-14T11:23:31.761Z,12.57
2018-11-14T11:26:00.332Z,11.13
2018-11-14T11:28:28.936Z,10.93
2018-11-14T11:30:57.647Z,10.73
2018-11-14T11:33:26.205Z,10.30
2018-11-14T11:35:54.700Z,10.50
2018-11-14T11:38:23.361Z,10.63
2018-11-14T11:40:51.873Z,11.30
2018-11-14T11:43:20.385Z,11.67
2018-11-14T11:45:50.736Z,9.17
2018-11-14T11:48:19.472Z,12.67
2018-11-14T11:50:53.038Z,13.40
2018-11-14T11:53:22.363Z,13.90
2018-11-14T11:55:53.236Z,13.07
2018-11-14T11:58:21.748Z,10.57
2018-11-14T12:00:50.368Z,13.20
2018-11-14T12:03:18.860Z,12.30
2018-11-14T12:05:47.380Z,11.50
2018-11-14T12:08:15.893Z,10.93
2018-11-14T12:10:44.504Z,10.30
2018-11-14T12:13:13.138Z,13.03
2018-11-14T12:15:41.641Z,13.87
2018-11-14T12:18:10.196Z,11.03
2018-11-14T12:20:38.768Z,14.70
2018-11-14T12:23:07.285Z,9.83
2018-11-14T12:25:35.876Z,9.80
2018-11-14T12:28:04.518Z,11.20
2018-11-14T12:30:33.094Z,10.00
2018-11-14T12:33:01.647Z,8.80
2018-11-14T12:35:30.207Z,7.67
2018-11-14T12:37:58.814Z,8.80
2018-11-14T12:40:27.292Z,8.90
2018-11-14T12:42:55.841Z,10.17
2018-11-14T12:45:24.380Z,11.20
2018-11-14T12:47:52.860Z,8.40
2018-11-14T12:50:21.536Z,10.33
2018-11-14T12:52:50.093Z,9.03
2018-11-14T12:55:19.411Z,9.63
2018-11-14T12:57:47.960Z,9.37
2018-11-14T13:00:18.149Z,10.67
2018-11-14T13:02:46.666Z,10.80
2018-11-14T13:05:16.176Z,8.97
2018-11-14T13:07:45.036Z,11.63
2018-11-14T13:10:14.844Z,10.57
2018-11-14T13:12:44.197Z,10.70
2018-11-14T13:15:13.791Z,12.17
2018-11-14T13:17:43.182Z,10.87
2018-11-14T13:20:16.263Z,14.87
2018-11-14T13:22:45.274Z,12.40
2018-11-14T13:25:14.732Z,14.00
2018-11-14T13:27:44.500Z,14.57
2018-11-14T13:30:15.304Z,13.83
2018-11-14T13:32:44.616Z,14.33
2018-11-14T13:35:14.560Z,14.30
2018-11-14T13:37:43.822Z,15.80
2018-11-14T13:40:12.605Z,16.67
2018-11-14T13:42:41.513Z,15.37
2018-11-14T13:45:11.883Z,14.57
2018-11-14T13:47:40.780Z,17.10
2018-11-14T13:50:12.388Z,17.10
2018-11-14T13:52:41.024Z,15.93
2018-11-14T13:55:11.727Z,17.63
2018-11-14T13:57:41.004Z,13.70
2018-11-14T14:00:11.349Z,14.33
2018-11-14T14:02:39.941Z,12.73
2018-11-14T14:05:10.832Z,14.10
2018-11-14T14:07:39.364Z,15.23
2018-11-14T14:10:09.316Z,17.83
2018-11-14T14:12:38.240Z,17.97
2018-11-14T14:15:09.448Z,18.30
2018-11-14T14:17:38.172Z,17.47
2018-11-14T14:20:07.960Z,19.90
2018-11-14T14:22:36.542Z,19.27
2018-11-14T14:25:06.396Z,17.43
2018-11-14T14:27:34.900Z,18.60
2018-11-14T14:30:03.471Z,19.00
2018-11-14T14:32:31.944Z,20.77
2018-11-14T14:35:00.588Z,18.90
2018-11-14T14:37:29.127Z,17.90
2018-11-14T14:39:57.881Z,18.60
2018-11-14T14:42:26.432Z,19.90
2018-11-14T14:44:55.007Z,19.23
2018-11-14T14:47:23.661Z,20.77
2018-11-14T14:49:52.178Z,19.87
2018-11-14T14:52:20.901Z,19.23
2018-11-14T14:54:49.447Z,21.97
2018-11-14T14:57:17.957Z,20.47
2018-11-14T14:59:46.457Z,20.47
2018-11-14T15:02:14.943Z,22.87
2018-11-14T15:04:44.157Z,22.17
2018-11-14T15:07:12.621Z,19.00
2018-11-14T15:09:41.186Z,21.50
2018-11-14T15:12:09.717Z,20.23
2018-11-14T15:14:38.904Z,19.83
2018-11-14T15:17:07.420Z,21.67
2018-11-14T15:19:35.992Z,22.87
2018-11-14T15:22:04.792Z,19.70
2018-11-14T15:24:33.304Z,20.73
2018-11-14T15:27:02.082Z,19.17
2018-11-14T15:29:30.708Z,19.00
2018-11-14T15:31:59.220Z,19.23
2018-11-14T15:34:27.873Z,19.70
2018-11-14T15:36:56.400Z,18.53
2018-11-14T15:39:24.935Z,20.60
2018-11-14T15:41:53.468Z,18.73
2018-11-14T15:44:22.048Z,18.73
2018-11-14T15:46:50.686Z,19.27
2018-11-14T15:49:20.124Z,19.83
2018-11-14T15:51:48.695Z,20.30
2018-11-14T15:54:17.359Z,19.60
2018-11-14T15:56:45.840Z,18.97
2018-11-14T15:59:14.349Z,19.87
2018-11-14T16:01:42.952Z,19.10
2018-11-14T16:04:11.736Z,19.93
2018-11-14T16:06:40.320Z,21.90
2018-11-14T16:09:11.707Z,22.73
2018-11-14T16:11:40.665Z,20.80
2018-11-14T16:14:09.226Z,18.73
2018-11-14T16:16:37.892Z,19.20
2018-11-14T16:19:06.808Z,20.67
2018-11-14T16:21:35.376Z,24.90
2018-11-14T16:24:03.896Z,24.47
2018-11-14T16:26:32.424Z,22.87
2018-11-14T16:29:00.933Z,20.27
2018-11-14T16:31:29.846Z,25.33
2018-11-14T16:33:58.438Z,22.67
2018-11-14T16:36:27.004Z,23.57
2018-11-14T16:38:55.604Z,24.60
2018-11-14T16:41:24.140Z,25.90
2018-11-14T16:43:52.667Z,25.13
2018-11-14T16:46:21.276Z,22.10
2018-11-14T16:48:49.840Z,23.03
2018-11-14T16:51:18.380Z,24.47
2018-11-14T16:53:47.796Z,26.33
2018-11-14T16:56:16.401Z,23.80
2018-11-14T16:58:44.954Z,22.23
2018-11-14T17:01:13.572Z,21.67
2018-11-14T17:03:42.235Z,25.67
2018-11-14T17:06:10.876Z,24.97
2018-11-14T17:08:39.546Z,26.50
2018-11-14T17:11:08.232Z,27.57
2018-11-14T17:13:36.969Z,27.43
2018-11-14T17:16:06.545Z,25.70
2018-11-14T17:18:35.201Z,23.57
2018-11-14T17:21:05.608Z,24.23
2018-11-14T17:23:34.315Z,23.60
2018-11-14T17:26:02.984Z,25.87
2018-11-14T17:28:31.684Z,24.53
2018-11-14T17:31:00.988Z,24.17
2018-11-14T17:33:29.651Z,24.50
2018-11-14T17:35:58.395Z,26.30
2018-11-14T17:38:28.511Z,25.50
2018-11-14T17:40:58.129Z,27.47
2018-11-14T17:43:27.536Z,28.70
2018-11-14T17:45:57.415Z,27.60
2018-11-14T17:48:26.616Z,28.13
2018-11-14T17:50:55.386Z,26.47
2018-11-14T17:53:24.889Z,28.73
2018-11-14T17:55:54.512Z,32.53
2018-11-14T17:58:23.152Z,30.07
2018-11-14T18:00:51.759Z,28.50
2018-11-14T18:03:20.352Z,29.33
2018-11-14T18:05:48.908Z,31.50
2018-11-14T18:08:17.472Z,29.60
2018-11-14T18:10:47.073Z,30.97
2018-11-14T18:13:15.576Z,28.60
2018-11-14T18:15:44.092Z,30.83
2018-11-14T18:18:12.648Z,28.67
2018-11-14T18:20:41.156Z,27.63
2018-11-14T18:23:09.844Z,31.80
2018-11-14T18:25:38.359Z,30.60
2018-11-14T18:28:07.019Z,31.87
2018-11-14T18:30:35.692Z,29.47
2018-11-14T18:33:04.159Z,29.83
2018-11-14T18:35:32.876Z,28.10
2018-11-14T18:38:01.541Z,29.20
2018-11-14T18:40:31.539Z,27.20
2018-11-14T18:43:00.112Z,29.70
2018-11-14T18:45:30.656Z,30.23
2018-11-14T18:48:00.184Z,28.70
2018-11-14T18:50:29.060Z,28.40
2018-11-14T18:52:58.278Z,31.43
2018-11-14T18:55:28.380Z,29.10
2018-11-14T18:57:57.407Z,28.50
2018-11-14T19:00:27.192Z,28.83
2018-11-14T19:02:55.839Z,28.00
2018-11-14T19:05:24.489Z,27.43
2018-11-14T19:07:53.127Z,29.03
2018-11-14T19:10:23.212Z,23.37
2018-11-14T19:12:52.420Z,17.73
2018-11-14T19:15:22.280Z,18.50
2018-11-14T19:17:51.363Z,18.87
2018-11-14T19:20:24.969Z,18.07
2018-11-14T19:22:54.839Z,18.53
2018-11-14T19:25:25.028Z,19.50
2018-11-14T19:27:53.676Z,19.50
2018-11-14T19:30:26.606Z,17.77
2018-11-14T19:32:55.844Z,18.83
2018-11-14T19:35:24.437Z,18.87
2018-11-14T19:37:54.665Z,19.50
2018-11-14T19:40:24.798Z,19.40
2018-11-14T19:42:55.984Z,21.03
2018-11-14T19:45:29.856Z,19.60
2018-11-14T19:47:58.617Z,20.33
2018-11-14T19:50:27.691Z,18.60
2018-11-14T19:52:56.544Z,22.07
2018-11-14T19:55:26.478Z,23.37
2018-11-14T19:57:56.468Z,21.00
2018-11-14T20:00:30.049Z,22.33
2018-11-14T20:02:58.649Z,22.87
2018-11-14T20:05:27.180Z,21.27
2018-11-14T20:07:56.557Z,24.90
2018-11-14T20:10:26.959Z,24.30
2018-11-14T20:12:55.544Z,26.33
2018-11-14T20:15:25.441Z,28.50
2018-11-14T20:17:54.187Z,24.20
2018-11-14T20:20:24.276Z,25.60
2018-11-14T20:22:52.875Z,28.13
2018-11-14T20:25:21.413Z,26.90
2018-11-14T20:27:50.033Z,27.23
2018-11-14T20:30:27.280Z,26.33
2018-11-14T20:32:57.077Z,23.90
2018-11-14T20:35:26.403Z,26.83
2018-11-14T20:37:54.968Z,26.60
2018-11-14T20:40:24.076Z,27.20
2018-11-14T20:42:53.331Z,28.07
2018-11-14T20:45:24.216Z,28.20
2018-11-14T20:47:52.840Z,30.10
2018-11-14T20:50:22.604Z,29.27
2018-11-14T20:52:53.760Z,26.73
2018-11-14T20:55:22.300Z,27.70
2018-11-14T20:57:50.809Z,29.67
2018-11-14T21:00:26.480Z,28.20
2018-11-14T21:02:55.449Z,29.23
2018-11-14T21:05:25.027Z,28.90
2018-11-14T21:07:53.826Z,28.63
2018-11-14T21:10:23.879Z,28.90
2018-11-14T21:12:52.995Z,29.73
2018-11-14T21:15:23.870Z,28.57
2018-11-14T21:17:53.108Z,29.43
2018-11-14T21:20:22.209Z,31.53
2018-11-14T21:22:51.507Z,26.33
2018-11-14T21:25:21.130Z,28.00
2018-11-14T21:27:50.305Z,27.70
2018-11-14T21:30:20.773Z,29.57
2018-11-14T21:32:49.308Z,30.20
2018-11-14T21:35:22.400Z,30.57
2018-11-14T21:37:52.292Z,30.33
2018-11-14T21:40:20.884Z,29.60
2018-11-14T21:42:49.568Z,30.30
2018-11-14T21:45:19.377Z,27.90
2018-11-14T21:47:53.208Z,29.73
2018-11-14T21:50:22.891Z,28.50
2018-11-14T21:52:51.399Z,30.83
2018-11-14T21:55:20.075Z,30.33
2018-11-14T21:57:48.636Z,27.97
2018-11-14T22:00:18.572Z,26.23
2018-11-14T22:02:49.545Z,27.37
2018-11-14T22:05:18.044Z,26.43
2018-11-14T22:07:46.524Z,27.20
2018-11-14T22:10:16.759Z,28.83
2018-11-14T22:12:45.910Z,24.80
2018-11-14T22:15:15.347Z,26.27
2018-11-14T22:17:44.415Z,25.50
2018-11-14T22:20:14.220Z,26.00
2018-11-14T22:22:43.617Z,27.60
2018-11-14T22:25:13.278Z,27.50
2018-11-14T22:27:41.966Z,27.40
2018-11-14T22:30:14.868Z,25.97
2018-11-14T22:32:43.581Z,29.63
2018-11-14T22:35:14.626Z,30.67
2018-11-14T22:37:43.127Z,28.90
2018-11-14T22:40:13.831Z,31.87
2018-11-14T22:42:42.555Z,29.30
2018-11-14T22:45:13.685Z,28.80
2018-11-14T22:47:43.096Z,25.70
2018-11-14T22:50:13.400Z,29.00
2018-11-14T22:52:42.615Z,30.20
2018-11-14T22:55:12.672Z,28.90
2018-11-14T22:57:41.953Z,27.17
2018-11-14T23:00:45.262Z,25.87
2018-11-14T23:03:14.648Z,26.40
2018-11-14T23:05:43.326Z,28.73
2018-11-14T23:08:11.979Z,26.80
2018-11-14T23:10:40.537Z,27.20
2018-11-14T23:13:09.165Z,23.40
2018-11-14T23:15:37.829Z,26.20
2018-11-14T23:18:06.560Z,24.43
2018-11-14T23:20:35.076Z,24.63
2018-11-14T23:23:03.668Z,21.90
2018-11-14T23:25:32.296Z,19.67
2018-11-14T23:28:00.884Z,21.83
2018-11-14T23:30:29.436Z,21.23
2018-11-14T23:32:58.315Z,20.90
2018-11-14T23:35:28.592Z,21.73
2018-11-14T23:37:58.383Z,21.60
2018-11-14T23:40:27.260Z,22.10
2018-11-14T23:42:56.177Z,21.20
2018-11-14T23:45:25.481Z,22.33
2018-11-14T23:47:54.000Z,25.00
2018-11-14T23:50:23.748Z,20.97
2018-11-14T23:52:53.347Z,22.13
2018-11-14T23:55:22.713Z,24.33
2018-11-14T23:57:51.320Z,24.63
